Time;durP1;ratioP1;P1;durP2;ratioP2;P2;SDS_P1;SDS_P2;PMS_P1;PMS_P2;Temp;Humidity;BMP_temperature;BMP_pressure;BME280_temperature;BME280_humidity;BME280_pressure;Samples;Min_cycle;Max_cycle;Signal;HPM_P1;HPM_P2
2022/08/20 00:02:03;;;;;;;6.70;4.45;;;19.10;83.50;;;;;;5076765;28;20620;-88
2022/08/20 00:04:29;;;;;;;5.35;4.28;;;19.10;82.50;;;;;;5075347;28;20236;-88
2022/08/20 00:06:54;;;;;;;6.07;5.45;;;19.10;82.60;;;;;;5075532;28;20633;-88
2022/08/20 00:09:20;;;;;;;8.23;4.68;;;19.00;82.80;;;;;;5076706;28;20168;-88
2022/08/20 00:11:46;;;;;;;4.55;4.20;;;18.90;83.20;;;;;;5075656;28;20262;-89
2022/08/20 00:14:11;;;;;;;4.45;4.00;;;18.90;83.20;;;;;;5076079;28;20234;-88
2022/08/20 00:16:37;;;;;;;5.68;4.00;;;18.90;83.00;;;;;;5075556;28;20194;-89
2022/08/20 00:19:06;;;;;;;4.40;4.00;;;18.90;82.90;;;;;;5075259;28;20653;-89
2022/08/20 00:21:32;;;;;;;4.85;4.15;;;19.00;82.70;;;;;;5075157;28;20194;-88
2022/08/20 00:23:58;;;;;;;4.60;3.80;;;19.00;82.60;;;;;;5075265;28;20641;-88
2022/08/20 00:26:24;;;;;;;3.92;3.60;;;19.10;82.50;;;;;;5076272;28;20673;-90
2022/08/20 00:28:50;;;;;;;4.88;4.32;;;19.10;82.40;;;;;;5076231;28;20167;-90
2022/08/20 00:31:19;;;;;;;4.63;4.22;;;19.10;82.40;;;;;;5076197;28;20182;-89
2022/08/20 00:33:46;;;;;;;5.18;4.32;;;18.90;81.00;;;;;;5076014;28;20175;-89
2022/08/20 00:36:14;;;;;;;5.00;4.50;;;18.90;81.00;;;;;;5074695;28;20209;-90
2022/08/20 00:38:41;;;;;;;5.32;4.80;;;18.90;80.60;;;;;;5074929;28;20186;-90
2022/08/20 00:41:10;;;;;;;6.03;4.75;;;18.80;81.20;;;;;;5074701;28;20207;-90
2022/08/20 00:43:49;;;;;;;4.47;4.07;;;18.70;82.00;;;;;;5074702;28;20233;-90
2022/08/20 00:46:24;;;;;;;7.15;4.53;;;18.70;82.20;;;;;;5075858;28;20260;-90
2022/08/20 00:48:53;;;;;;;8.07;5.05;;;18.70;82.60;;;;;;5074689;28;20262;-90
2022/08/20 00:51:52;;;;;;;5.60;4.97;;;18.70;82.70;;;;;;5074616;28;20167;-90
2022/08/20 00:54:26;;;;;;;7.47;4.45;;;18.60;83.00;;;;;;5071522;28;20279;-90
2022/08/20 00:56:57;;;;;;;5.15;4.75;;;18.70;82.90;;;;;;5074678;28;20198;-90
2022/08/20 00:59:27;;;;;;;5.35;4.82;;;18.60;82.60;;;;;;5075543;28;20240;-90
2022/08/20 01:01:53;;;;;;;5.85;5.35;;;18.60;82.40;;;;;;5075219;28;20179;-90
2022/08/20 01:04:19;;;;;;;6.38;5.53;;;18.60;82.40;;;;;;5074491;28;20597;-89
2022/08/20 01:06:44;;;;;;;8.82;6.88;;;18.50;82.30;;;;;;5074244;28;20298;-90
2022/08/20 01:09:10;;;;;;;11.57;7.13;;;18.50;82.20;;;;;;5075617;28;20167;-89
2022/08/20 01:11:37;;;;;;;8.55;7.60;;;18.50;82.50;;;;;;5074250;28;20171;-90
2022/08/20 01:17:01;;;;;;;11.23;9.98;;;18.50;83.40;;;;;;5075629;28;20282;-90
2022/08/20 01:19:37;;;;;;;13.20;11.90;;;18.50;83.90;;;;;;5075276;28;20156;-90
2022/08/20 01:23:25;;;;;;;15.75;13.23;;;18.50;84.10;;;;;;5074095;28;20175;-90
2022/08/20 01:24:54;;;;;;;15.80;13.90;;;18.50;84.10;;;;;;5074985;28;20179;-90
2022/08/20 01:27:21;;;;;;;14.07;12.63;;;18.50;83.90;;;;;;5073866;28;20207;-90
2022/08/20 01:29:47;;;;;;;18.05;13.93;;;18.60;84.00;;;;;;5073821;28;20167;-90
2022/08/20 01:32:13;;;;;;;14.77;13.30;;;18.50;84.10;;;;;;5073841;28;20306;-90
2022/08/20 01:34:38;;;;;;;15.10;12.55;;;18.60;84.30;;;;;;5073873;28;20206;-90
2022/08/20 01:37:04;;;;;;;14.88;12.52;;;18.60;84.40;;;;;;5073587;28;20195;-90
2022/08/20 01:39:33;;;;;;;14.32;12.75;;;18.70;84.40;;;;;;5073592;28;20270;-90
2022/08/20 01:42:14;;;;;;;14.50;12.52;;;18.70;84.30;;;;;;5073709;28;20171;-90
2022/08/20 01:44:43;;;;;;;16.08;14.48;;;18.70;84.20;;;;;;5073641;28;20164;-90
2022/08/20 01:47:25;;;;;;;17.88;13.65;;;18.70;84.10;;;;;;5073451;28;20215;-91
2022/08/20 01:49:58;;;;;;;15.65;13.85;;;18.70;84.20;;;;;;5073394;28;20167;-90
2022/08/20 01:52:42;;;;;;;17.52;15.57;;;18.70;84.20;;;;;;5073391;28;20163;-90
2022/08/20 01:55:09;;;;;;;23.92;18.65;;;18.70;84.10;;;;;;5073283;28;20625;-89
2022/08/20 01:57:36;;;;;;;21.52;17.23;;;18.70;84.60;;;;;;5073126;28;20179;-90
2022/08/20 02:00:11;;;;;;;22.20;18.20;;;18.60;84.80;;;;;;5073073;28;20241;-90
2022/08/20 02:02:38;;;;;;;19.35;16.13;;;18.60;85.50;;;;;;5073208;28;20178;-90
2022/08/20 02:05:04;;;;;;;25.08;18.63;;;18.50;86.00;;;;;;5072997;28;20646;-89
2022/08/20 02:07:31;;;;;;;20.45;18.20;;;18.50;86.00;;;;;;5072925;28;20293;-90
2022/08/20 02:09:57;;;;;;;20.20;18.20;;;18.50;86.40;;;;;;5072028;28;20179;-90
2022/08/20 02:12:23;;;;;;;19.58;17.58;;;18.40;86.70;;;;;;5073566;28;20172;-90
2022/08/20 02:14:51;;;;;;;22.80;17.77;;;18.50;86.70;;;;;;5072989;28;20229;-90
2022/08/20 02:17:18;;;;;;;19.27;17.23;;;18.50;86.60;;;;;;5072828;28;20210;-89
2022/08/20 02:19:57;;;;;;;20.23;17.38;;;18.50;86.60;;;;;;5072941;28;20232;-90
2022/08/20 02:22:38;;;;;;;22.58;17.30;;;18.50;86.50;;;;;;5073083;28;20167;-90
2022/08/20 02:25:06;;;;;;;18.35;16.02;;;18.50;86.60;;;;;;5074039;28;20164;-90
2022/08/20 02:27:31;;;;;;;17.83;15.93;;;18.50;86.60;;;;;;5073282;28;20199;-90
2022/08/20 02:29:57;;;;;;;17.95;15.82;;;18.50;86.90;;;;;;5072736;28;20675;-90
2022/08/20 02:32:23;;;;;;;19.73;17.25;;;18.50;86.80;;;;;;5074154;28;20624;-90
2022/08/20 02:34:48;;;;;;;20.50;16.13;;;18.50;86.90;;;;;;5072731;28;20171;-91
2022/08/20 02:37:17;;;;;;;22.58;18.80;;;18.50;87.40;;;;;;5072613;28;20199;-90
2022/08/20 02:39:44;;;;;;;21.65;19.15;;;18.50;87.70;;;;;;5072776;28;20179;-91
2022/08/20 02:42:11;;;;;;;22.80;17.45;;;18.40;87.90;;;;;;5072521;28;20334;-90
2022/08/20 02:44:38;;;;;;;22.80;19.00;;;18.50;87.80;;;;;;5072486;28;20179;-90
2022/08/20 02:47:04;;;;;;;23.65;19.23;;;18.40;87.70;;;;;;5072422;28;20211;-90
2022/08/20 02:49:30;;;;;;;29.58;22.35;;;18.40;87.70;;;;;;5072347;28;20548;-90
2022/08/20 02:51:56;;;;;;;26.23;21.10;;;18.40;87.90;;;;;;5072326;28;20171;-90
2022/08/20 02:54:21;;;;;;;30.48;21.60;;;18.40;88.00;;;;;;5073271;28;20545;-90
2022/08/20 02:56:47;;;;;;;25.75;20.75;;;18.40;88.40;;;;;;5073448;28;20232;-89
2022/08/20 02:59:12;;;;;;;26.73;22.73;;;18.40;88.60;;;;;;5072145;28;20646;-89
2022/08/20 03:01:38;;;;;;;25.75;21.90;;;18.40;88.70;;;;;;5073591;28;20167;-90
2022/08/20 03:04:04;;;;;;;21.63;19.30;;;18.40;88.80;;;;;;5073646;28;20171;-90
2022/08/20 03:06:30;;;;;;;25.58;22.00;;;18.50;88.80;;;;;;5071982;28;20211;-89
2022/08/20 03:08:55;;;;;;;25.52;21.27;;;18.50;88.70;;;;;;5072463;28;20213;-90
2022/08/20 03:11:21;;;;;;;25.88;19.02;;;18.50;88.90;;;;;;5072143;28;20179;-89
2022/08/20 03:13:47;;;;;;;24.85;20.65;;;18.50;88.90;;;;;;5072135;28;20171;-90
2022/08/20 03:16:13;;;;;;;25.05;21.08;;;18.60;88.90;;;;;;5073484;28;20249;-89
2022/08/20 03:18:44;;;;;;;24.40;19.30;;;18.50;89.00;;;;;;5072022;28;20178;-90
2022/08/20 03:21:10;;;;;;;26.73;20.30;;;18.60;89.00;;;;;;5072920;28;20186;-90
2022/08/20 03:23:37;;;;;;;24.52;21.42;;;18.60;88.90;;;;;;5072252;28;20175;-89
2022/08/20 03:26:10;;;;;;;24.25;21.65;;;18.60;88.90;;;;;;5072432;28;20286;-90
2022/08/20 03:28:36;;;;;;;29.35;22.13;;;18.60;89.10;;;;;;5072038;28;20634;-90
2022/08/20 03:31:02;;;;;;;28.65;22.10;;;18.50;89.40;;;;;;5072058;28;20221;-90
2022/08/20 03:33:30;;;;;;;29.63;22.58;;;18.50;89.60;;;;;;5072098;28;20546;-90
2022/08/20 03:35:56;;;;;;;24.77;20.80;;;18.50;89.70;;;;;;5071779;28;20199;-89
2022/08/20 03:38:23;;;;;;;32.38;23.60;;;18.50;89.90;;;;;;5071870;28;20677;-89
2022/08/20 03:40:49;;;;;;;26.88;22.50;;;18.50;90.00;;;;;;5073054;28;20546;-90
2022/08/20 03:43:15;;;;;;;26.75;23.00;;;18.50;90.10;;;;;;5072734;28;20202;-89
2022/08/20 03:45:43;;;;;;;27.02;22.23;;;18.50;90.20;;;;;;5072870;28;20696;-89
2022/08/20 03:48:12;;;;;;;25.38;20.80;;;18.50;90.20;;;;;;5071747;28;20175;-90
2022/08/20 03:50:40;;;;;;;27.75;23.63;;;18.60;90.10;;;;;;5073012;28;20168;-90
2022/08/20 03:53:07;;;;;;;29.50;23.33;;;18.60;90.10;;;;;;5071717;28;20171;-89
2022/08/20 03:55:33;;;;;;;29.73;24.45;;;18.50;90.20;;;;;;5071731;28;20191;-89
2022/08/20 03:58:01;;;;;;;31.05;25.45;;;18.60;90.40;;;;;;5071589;28;20233;-90
2022/08/20 04:00:34;;;;;;;34.40;26.85;;;18.60;90.70;;;;;;5071500;28;20687;-90
2022/08/20 04:03:00;;;;;;;31.08;25.33;;;18.60;90.90;;;;;;5072136;28;20172;-90
2022/08/20 04:05:27;;;;;;;37.30;26.33;;;18.50;91.00;;;;;;5072699;28;20657;-89
2022/08/20 04:07:53;;;;;;;35.95;27.27;;;18.60;91.20;;;;;;5072871;28;20163;-89
2022/08/20 04:10:18;;;;;;;33.47;27.17;;;18.60;91.40;;;;;;5071536;28;20198;-89
2022/08/20 04:12:44;;;;;;;33.38;25.73;;;18.60;91.40;;;;;;5071586;28;20168;-89
2022/08/20 04:15:14;;;;;;;33.75;25.38;;;18.60;91.50;;;;;;5073006;28;20167;-89
2022/08/20 04:17:42;;;;;;;30.58;25.05;;;18.60;91.50;;;;;;5071860;28;20650;-89
2022/08/20 04:20:10;;;;;;;31.55;25.25;;;18.60;91.50;;;;;;5071449;28;20201;-89
2022/08/20 04:22:36;;;;;;;30.80;25.00;;;18.60;91.50;;;;;;5071550;28;20179;-89
2022/08/20 04:25:04;;;;;;;33.55;27.50;;;18.60;91.60;;;;;;5072618;28;20665;-89
2022/08/20 04:27:31;;;;;;;34.25;26.70;;;18.70;91.70;;;;;;5071233;28;20206;-89
2022/08/20 04:29:58;;;;;;;29.38;24.30;;;18.70;91.70;;;;;;5071539;28;20167;-89
2022/08/20 04:32:24;;;;;;;29.77;24.23;;;18.70;91.70;;;;;;5074172;28;20159;-88
2022/08/20 04:34:51;;;;;;;29.67;23.65;;;18.70;91.70;;;;;;5074814;28;20178;-88
2022/08/20 04:37:20;;;;;;;29.25;24.73;;;18.70;91.60;;;;;;5074739;28;20202;-88
2022/08/20 04:40:52;;;;;;;32.60;25.98;;;18.70;91.50;;;;;;5074685;28;20175;-89
2022/08/20 04:42:31;;;;;;;29.13;23.50;;;18.70;91.50;;;;;;5075768;28;20210;-89
2022/08/20 04:44:57;;;;;;;29.73;23.92;;;18.70;91.60;;;;;;5074730;28;20187;-88
2022/08/20 04:47:22;;;;;;;27.80;22.95;;;18.70;91.60;;;;;;5074532;28;20199;-89
2022/08/20 04:49:48;;;;;;;29.73;24.23;;;18.80;91.50;;;;;;5074558;28;20262;-88
2022/08/20 04:52:13;;;;;;;25.27;22.55;;;18.80;91.50;;;;;;5074544;28;20179;-88
2022/08/20 04:54:39;;;;;;;28.00;22.23;;;18.80;91.60;;;;;;5074487;28;20183;-88
2022/08/20 04:57:04;;;;;;;28.48;23.35;;;18.80;91.60;;;;;;5074439;28;20204;-88
2022/08/20 04:59:30;;;;;;;26.98;22.70;;;18.80;91.70;;;;;;5077954;28;20688;-90
2022/08/20 05:01:55;;;;;;;26.75;21.85;;;18.80;91.70;;;;;;5082400;28;20184;-89
2022/08/20 05:04:21;;;;;;;28.52;22.70;;;18.90;91.70;;;;;;5074462;28;20175;-89
2022/08/20 05:06:48;;;;;;;28.52;22.83;;;18.90;91.70;;;;;;5074182;28;20704;-88
2022/08/20 05:09:13;;;;;;;28.45;20.90;;;18.90;91.70;;;;;;5075447;28;20174;-88
2022/08/20 05:11:39;;;;;;;25.33;20.40;;;18.90;91.70;;;;;;5074139;28;20574;-88
2022/08/20 05:14:07;;;;;;;27.70;21.02;;;18.90;91.60;;;;;;5080548;28;20169;-92
2022/08/20 05:16:36;;;;;;;22.30;19.98;;;18.90;91.60;;;;;;5074678;28;20195;-88
2022/08/20 05:19:02;;;;;;;30.45;21.40;;;19.00;91.60;;;;;;5074149;28;20178;-88
2022/08/20 05:21:27;;;;;;;23.00;20.52;;;18.90;91.50;;;;;;5074048;28;20171;-88
2022/08/20 05:23:53;;;;;;;24.17;20.83;;;19.00;91.50;;;;;;5073959;28;20183;-88
2022/08/20 05:26:19;;;;;;;23.13;20.63;;;19.00;91.40;;;;;;5073899;28;20199;-89
2022/08/20 05:28:44;;;;;;;26.92;22.05;;;19.00;91.40;;;;;;5073781;28;20233;-89
2022/08/20 05:31:10;;;;;;;22.65;19.95;;;19.00;91.40;;;;;;5075247;28;20167;-88
2022/08/20 05:33:37;;;;;;;26.25;20.25;;;19.00;91.50;;;;;;5073706;28;20171;-89
2022/08/20 05:36:05;;;;;;;23.30;20.80;;;19.00;91.50;;;;;;5073553;28;20199;-89
2022/08/20 05:38:33;;;;;;;23.13;20.27;;;19.10;91.50;;;;;;5073613;28;20171;-87
2022/08/20 05:40:59;;;;;;;23.80;20.77;;;19.10;91.50;;;;;;5083086;28;20191;-92
2022/08/20 05:43:25;;;;;;;26.40;22.27;;;19.10;91.50;;;;;;5086939;28;20198;-91
2022/08/20 05:45:51;;;;;;;25.30;21.65;;;19.10;91.50;;;;;;5087961;28;20210;-92
2022/08/20 05:48:22;;;;;;;28.13;22.25;;;19.00;91.50;;;;;;5090330;28;20184;-92
2022/08/20 05:50:50;;;;;;;27.70;22.13;;;19.00;91.70;;;;;;5092632;28;20179;-92
2022/08/20 05:53:17;;;;;;;31.23;23.13;;;19.00;91.70;;;;;;5073547;28;20211;-89
2022/08/20 05:55:44;;;;;;;35.38;23.63;;;18.90;91.80;;;;;;5074114;28;20673;-87
2022/08/20 05:58:20;;;;;;;27.00;23.60;;;18.80;91.80;;;;;;5082282;28;20227;-93
2022/08/20 06:00:47;;;;;;;33.92;24.35;;;18.80;91.90;;;;;;5089566;28;20221;-87
2022/08/20 06:05:57;;;;;;;30.63;25.05;;;18.80;92.00;;;;;;5074536;28;20582;-88
2022/08/20 06:08:23;;;;;;;32.92;23.52;;;18.90;92.00;;;;;;5074338;28;20171;-89
2022/08/20 06:10:49;;;;;;;31.35;23.33;;;19.00;92.00;;;;;;5073153;28;20171;-89
2022/08/20 06:13:15;;;;;;;28.30;22.63;;;19.00;92.00;;;;;;5072905;28;20176;-89
2022/08/20 06:15:41;;;;;;;25.58;21.67;;;19.00;91.80;;;;;;5072874;28;20677;-89
2022/08/20 06:18:08;;;;;;;27.67;23.15;;;18.90;91.80;;;;;;5072819;28;20187;-89
2022/08/20 06:20:36;;;;;;;29.55;23.17;;;19.00;91.90;;;;;;5072818;28;20179;-88
2022/08/20 06:23:04;;;;;;;33.00;23.20;;;19.10;92.00;;;;;;5073489;28;20178;-89
2022/08/20 06:25:30;;;;;;;26.55;23.55;;;19.10;92.00;;;;;;5072505;28;20192;-88
2022/08/20 06:27:55;;;;;;;29.95;24.33;;;19.20;92.00;;;;;;5072533;28;20258;-89
2022/08/20 06:30:21;;;;;;;28.15;22.38;;;19.40;92.00;;;;;;5072653;28;20618;-88
2022/08/20 06:32:46;;;;;;;30.20;23.67;;;19.40;91.80;;;;;;5072483;28;20595;-88
2022/08/20 06:35:13;;;;;;;30.45;21.48;;;19.50;91.80;;;;;;5072737;28;20194;-88
2022/08/20 06:37:39;;;;;;;30.85;20.83;;;19.50;91.60;;;;;;5072480;28;20270;-88
2022/08/20 06:40:11;;;;;;;24.98;19.52;;;19.50;91.20;;;;;;5073957;28;20214;-89
2022/08/20 06:42:42;;;;;;;22.80;17.50;;;19.50;90.80;;;;;;5073546;28;20171;-89
2022/08/20 06:45:09;;;;;;;22.80;18.05;;;19.50;90.60;;;;;;5073511;28;20617;-88
2022/08/20 06:47:42;;;;;;;20.50;17.75;;;19.60;90.20;;;;;;5072226;28;20207;-88
2022/08/20 06:50:15;;;;;;;20.27;17.85;;;19.60;90.30;;;;;;5072549;28;20164;-89
2022/08/20 06:52:41;;;;;;;20.63;16.85;;;19.70;90.20;;;;;;5072384;28;20176;-89
2022/08/20 06:55:08;;;;;;;23.92;16.52;;;19.70;90.00;;;;;;5073051;28;20175;-88
2022/08/20 06:57:35;;;;;;;17.27;15.07;;;19.70;89.80;;;;;;5072233;28;20232;-87
2022/08/20 07:00:02;;;;;;;18.05;16.05;;;19.80;89.70;;;;;;5072270;28;20563;-88
2022/08/20 07:02:28;;;;;;;18.30;13.90;;;19.90;89.60;;;;;;5073274;28;20214;-88
2022/08/20 07:04:54;;;;;;;15.10;11.60;;;20.00;89.40;;;;;;5072169;28;20186;-87
2022/08/20 07:07:19;;;;;;;13.25;11.10;;;20.00;89.00;;;;;;5071945;28;20244;-88
2022/08/20 07:09:45;;;;;;;14.88;11.38;;;20.00;88.40;;;;;;5073229;28;20262;-88
2022/08/20 07:12:12;;;;;;;12.48;10.15;;;20.00;88.40;;;;;;5072074;28;20175;-87
2022/08/20 07:14:37;;;;;;;10.60;9.20;;;20.00;87.80;;;;;;5073835;28;20167;-88
2022/08/20 07:17:03;;;;;;;11.93;8.50;;;20.10;87.70;;;;;;5071925;28;20278;-87
2022/08/20 07:19:30;;;;;;;8.23;7.43;;;20.00;87.10;;;;;;5071932;28;20187;-88
2022/08/20 07:21:56;;;;;;;8.40;7.40;;;19.90;86.70;;;;;;5072025;28;20605;-87
2022/08/20 07:24:21;;;;;;;15.32;7.40;;;20.00;86.30;;;;;;5072456;28;20202;-87
2022/08/20 07:26:48;;;;;;;10.10;6.15;;;20.00;85.90;;;;;;5071920;28;20239;-88
2022/08/20 07:29:13;;;;;;;10.40;5.50;;;20.00;85.30;;;;;;5071873;28;20171;-88
2022/08/20 07:34:23;;;;;;;9.30;5.43;;;20.20;85.40;;;;;;5073461;28;20587;-87
2022/08/20 07:36:49;;;;;;;11.63;5.55;;;20.20;85.20;;;;;;5073046;28;20191;-88
2022/08/20 07:39:14;;;;;;;8.25;5.00;;;20.20;85.30;;;;;;5071850;28;20181;-88
2022/08/20 07:41:40;;;;;;;10.85;4.47;;;20.30;85.40;;;;;;5073011;28;20252;-88
2022/08/20 07:44:05;;;;;;;10.27;3.95;;;20.30;85.30;;;;;;5073000;28;20641;-87
2022/08/20 07:46:31;;;;;;;12.32;4.45;;;20.30;85.30;;;;;;5071550;28;20282;-88
2022/08/20 07:48:57;;;;;;;5.97;3.33;;;20.40;85.00;;;;;;5071717;28;20628;-88
2022/08/20 07:51:23;;;;;;;9.52;3.03;;;20.40;84.50;;;;;;5071888;28;20652;-88
2022/08/20 07:53:50;;;;;;;8.65;3.22;;;20.50;84.10;;;;;;5072881;28;20254;-88
2022/08/20 07:56:20;;;;;;;8.73;3.50;;;20.60;83.60;;;;;;5072957;28;20614;-88
2022/08/20 07:58:49;;;;;;;15.00;4.53;;;20.70;83.30;;;;;;5071631;28;20176;-88
2022/08/20 08:01:28;;;;;;;14.27;4.20;;;20.80;83.20;;;;;;5073184;28;20164;-88
2022/08/20 08:03:54;;;;;;;15.38;3.30;;;20.90;82.70;;;;;;5071905;28;20175;-87
2022/08/20 08:06:22;;;;;;;13.88;3.67;;;21.10;82.20;;;;;;5073311;28;20700;-87
2022/08/20 08:08:47;;;;;;;10.68;3.13;;;21.20;81.70;;;;;;5076666;28;20175;-88
2022/08/20 08:11:13;;;;;;;15.10;3.67;;;21.30;82.50;;;;;;5075442;28;20173;-87
2022/08/20 08:13:40;;;;;;;13.82;3.95;;;21.40;81.40;;;;;;5075620;28;20258;-87
2022/08/20 08:16:08;;;;;;;12.65;3.45;;;21.30;80.30;;;;;;5076390;28;20218;-88
2022/08/20 08:18:45;;;;;;;13.77;3.10;;;21.30;80.50;;;;;;5076735;28;20163;-88
2022/08/20 08:21:11;;;;;;;9.75;3.35;;;21.70;79.60;;;;;;5076935;28;20238;-88
2022/08/20 08:23:43;;;;;;;20.95;3.60;;;21.70;78.60;;;;;;5075142;28;20606;-88
2022/08/20 08:26:13;;;;;;;18.20;3.42;;;21.70;78.70;;;;;;5076171;28;20541;-88
2022/08/20 08:28:40;;;;;;;10.25;3.35;;;21.90;79.10;;;;;;5075164;28;20633;-88
2022/08/20 08:31:06;;;;;;;10.95;3.10;;;21.80;78.00;;;;;;5075157;28;20171;-88
2022/08/20 08:33:32;;;;;;;12.88;3.78;;;21.70;77.40;;;;;;5076299;28;20168;-89
2022/08/20 08:36:08;;;;;;;13.82;3.75;;;21.80;77.20;;;;;;5076045;28;20188;-88
2022/08/20 08:38:36;;;;;;;11.20;3.50;;;21.90;77.30;;;;;;5075934;28;20179;-89
2022/08/20 08:41:16;;;;;;;12.55;3.15;;;21.90;76.10;;;;;;5079801;28;20167;-86
2022/08/20 08:43:45;;;;;;;10.93;3.00;;;22.00;76.20;;;;;;5076078;28;20159;-88
2022/08/20 08:46:15;;;;;;;9.18;2.72;;;22.20;76.30;;;;;;5074903;28;20267;-88
2022/08/20 08:48:45;;;;;;;16.40;3.67;;;22.00;74.50;;;;;;5075893;28;20144;-88
2022/08/20 08:51:15;;;;;;;9.07;2.95;;;21.90;74.00;;;;;;5074963;28;20262;-88
2022/08/20 08:53:47;;;;;;;12.15;3.30;;;22.00;74.80;;;;;;5074697;28;20241;-88
2022/08/20 08:56:14;;;;;;;10.63;2.88;;;21.80;75.50;;;;;;5074587;28;20199;-88
2022/08/20 08:58:42;;;;;;;19.50;3.20;;;21.70;75.30;;;;;;5074340;28;20595;-88
2022/08/20 09:01:11;;;;;;;9.90;3.35;;;21.90;75.60;;;;;;5075394;28;20170;-88
2022/08/20 09:03:42;;;;;;;13.23;3.30;;;21.70;75.50;;;;;;5074325;28;20266;-89
2022/08/20 09:06:15;;;;;;;11.65;2.97;;;21.70;75.10;;;;;;5074251;28;20692;-89
2022/08/20 09:08:46;;;;;;;9.75;2.97;;;21.90;75.30;;;;;;5075532;28;20209;-89
2022/08/20 09:11:13;;;;;;;13.35;4.63;;;22.00;74.40;;;;;;5074423;28;20164;-88
2022/08/20 09:13:39;;;;;;;13.43;4.07;;;22.20;74.80;;;;;;5075401;28;20637;-88
2022/08/20 09:16:05;;;;;;;16.58;3.83;;;22.50;72.10;;;;;;5074062;28;20195;-88
2022/08/20 09:18:31;;;;;;;14.18;2.60;;;22.30;72.10;;;;;;5073529;28;20172;-88
2022/08/20 09:20:57;;;;;;;7.47;2.80;;;22.50;73.00;;;;;;5075156;28;20649;-89
2022/08/20 09:23:22;;;;;;;14.55;2.95;;;22.50;72.50;;;;;;5073865;28;20187;-89
2022/08/20 09:25:48;;;;;;;12.65;3.55;;;22.40;72.20;;;;;;5074166;28;20199;-89
2022/08/20 09:28:14;;;;;;;10.85;2.75;;;22.20;72.90;;;;;;5075244;28;20195;-88
2022/08/20 09:30:39;;;;;;;9.48;3.25;;;21.90;73.20;;;;;;5075273;28;20668;-88
2022/08/20 09:33:07;;;;;;;11.80;2.88;;;22.10;72.50;;;;;;5074214;28;20179;-88
2022/08/20 09:35:33;;;;;;;10.05;3.15;;;22.20;71.70;;;;;;5075134;28;20205;-88
2022/08/20 09:37:59;;;;;;;12.98;3.72;;;22.30;72.20;;;;;;5073858;28;20171;-87
2022/08/20 09:40:24;;;;;;;12.68;2.95;;;22.70;72.10;;;;;;5076304;28;20185;-91
2022/08/20 09:42:50;;;;;;;8.95;2.95;;;22.90;69.90;;;;;;5075740;28;20179;-90
2022/08/20 09:45:16;;;;;;;9.82;3.15;;;22.40;70.90;;;;;;5074908;28;20178;-87
2022/08/20 09:47:42;;;;;;;10.25;2.85;;;22.50;70.60;;;;;;5073772;28;20272;-88
2022/08/20 09:50:08;;;;;;;15.32;3.85;;;22.40;68.50;;;;;;5073814;28;20653;-88
2022/08/20 09:52:38;;;;;;;10.20;2.83;;;22.50;70.10;;;;;;5075081;28;20561;-88
2022/08/20 09:55:20;;;;;;;8.77;2.90;;;22.80;69.70;;;;;;5073939;28;20179;-88
2022/08/20 09:57:46;;;;;;;13.80;3.53;;;22.50;68.80;;;;;;5073328;28;20657;-88
2022/08/20 10:00:12;;;;;;;14.38;2.92;;;23.00;69.20;;;;;;5073466;28;20202;-87
2022/08/20 10:02:38;;;;;;;11.32;2.20;;;23.20;67.70;;;;;;5074383;28;20703;-88
2022/08/20 10:05:05;;;;;;;9.98;2.40;;;23.70;65.20;;;;;;5074630;28;20657;-87
2022/08/20 10:07:30;;;;;;;10.48;2.92;;;23.50;64.90;;;;;;5073272;28;20600;-89
2022/08/20 10:09:56;;;;;;;16.20;2.85;;;23.70;63.40;;;;;;5074239;28;20164;-88
2022/08/20 10:12:22;;;;;;;9.05;3.40;;;24.00;62.70;;;;;;5073002;28;20176;-90
2022/08/20 10:14:47;;;;;;;11.77;2.58;;;24.10;60.00;;;;;;5073089;28;20172;-87
2022/08/20 10:17:13;;;;;;;8.05;2.25;;;24.20;59.90;;;;;;5073362;28;20202;-87
2022/08/20 10:19:38;;;;;;;11.60;2.47;;;24.30;59.80;;;;;;5073676;28;20187;-89
2022/08/20 10:22:04;;;;;;;11.20;2.75;;;24.50;58.10;;;;;;5074555;28;20178;-88
2022/08/20 10:24:30;;;;;;;10.18;2.40;;;24.80;57.70;;;;;;5072870;28;20175;-87
2022/08/20 10:26:57;;;;;;;16.23;3.10;;;24.50;58.60;;;;;;5073799;28;20199;-86
2022/08/20 10:29:24;;;;;;;10.90;2.75;;;24.30;59.00;;;;;;5071679;28;20171;-87
2022/08/20 10:31:50;;;;;;;10.65;2.42;;;24.30;59.30;;;;;;5072668;28;20178;-88
2022/08/20 10:34:16;;;;;;;7.07;2.22;;;24.30;60.00;;;;;;5074421;28;20175;-88
2022/08/20 10:36:42;;;;;;;10.38;2.20;;;23.90;61.80;;;;;;5073744;28;20195;-87
2022/08/20 10:39:08;;;;;;;8.32;2.58;;;23.90;59.30;;;;;;5073814;28;20584;-89
2022/08/20 10:41:33;;;;;;;8.18;2.50;;;23.70;59.20;;;;;;5074282;28;20188;-87
2022/08/20 10:43:59;;;;;;;13.35;2.28;;;23.90;60.10;;;;;;5072440;28;20296;-88
2022/08/20 10:46:24;;;;;;;6.20;1.90;;;24.20;59.40;;;;;;5072590;28;20223;-88
2022/08/20 10:48:50;;;;;;;5.82;2.05;;;24.10;59.00;;;;;;5072516;28;20164;-88
2022/08/20 10:51:16;;;;;;;8.32;2.38;;;23.90;59.60;;;;;;5073542;28;20254;-88
2022/08/20 10:53:41;;;;;;;5.85;1.63;;;24.30;58.70;;;;;;5072293;28;20262;-88
2022/08/20 10:56:07;;;;;;;9.45;2.03;;;24.20;57.00;;;;;;5072414;28;20202;-88
2022/08/20 10:58:33;;;;;;;9.20;2.30;;;24.20;54.60;;;;;;5073094;28;20175;-87
2022/08/20 11:01:01;;;;;;;7.30;2.00;;;23.80;56.50;;;;;;5072353;28;20179;-89
2022/08/20 11:03:27;;;;;;;8.02;1.70;;;23.80;57.40;;;;;;5072332;28;20183;-89
2022/08/20 11:05:52;;;;;;;8.40;1.70;;;24.10;56.00;;;;;;5072402;28;20245;-87
2022/08/20 11:08:18;;;;;;;6.35;1.95;;;24.20;54.00;;;;;;5072491;28;20546;-88
2022/08/20 11:10:43;;;;;;;5.78;1.90;;;24.40;54.30;;;;;;5072332;28;20171;-87
2022/08/20 11:13:11;;;;;;;5.32;1.90;;;24.60;55.50;;;;;;5072332;28;20321;-88
2022/08/20 11:15:39;;;;;;;7.53;1.98;;;24.70;54.60;;;;;;5072577;28;20191;-88
2022/08/20 11:18:05;;;;;;;4.38;1.73;;;24.70;54.40;;;;;;5072395;28;20286;-88
2022/08/20 11:20:30;;;;;;;4.90;1.52;;;24.70;52.10;;;;;;5072802;28;20610;-88
2022/08/20 11:22:56;;;;;;;6.40;1.48;;;24.80;51.30;;;;;;5073836;28;20168;-88
2022/08/20 11:25:22;;;;;;;7.50;1.85;;;24.90;51.50;;;;;;5072480;28;20175;-88
2022/08/20 11:27:49;;;;;;;6.80;2.17;;;24.80;50.10;;;;;;5072111;28;20645;-87
2022/08/20 11:30:19;;;;;;;5.78;1.60;;;24.50;50.40;;;;;;5072271;28;20179;-88
2022/08/20 11:32:45;;;;;;;6.20;1.80;;;24.60;51.20;;;;;;5074435;28;20217;-87
2022/08/20 11:35:10;;;;;;;6.22;1.35;;;24.60;51.90;;;;;;5073796;28;20167;-87
2022/08/20 11:37:36;;;;;;;5.32;1.60;;;24.80;52.10;;;;;;5073834;28;20614;-88
2022/08/20 11:40:03;;;;;;;8.93;2.00;;;24.80;51.30;;;;;;5072344;28;20175;-89
2022/08/20 11:42:28;;;;;;;5.57;1.65;;;24.70;51.40;;;;;;5075925;28;20179;-87
2022/08/20 11:44:54;;;;;;;9.32;1.58;;;24.70;52.20;;;;;;5076508;28;20183;-88
2022/08/20 11:47:28;;;;;;;3.85;1.50;;;24.90;51.90;;;;;;5077560;28;20195;-87
2022/08/20 11:49:57;;;;;;;7.95;1.50;;;24.70;52.30;;;;;;5077855;28;20152;-88
2022/08/20 11:52:23;;;;;;;8.73;2.30;;;24.90;51.20;;;;;;5076752;28;20175;-88
2022/08/20 11:54:48;;;;;;;6.03;2.17;;;25.00;50.50;;;;;;5077154;28;20175;-88
2022/08/20 11:57:22;;;;;;;9.70;2.25;;;25.20;50.30;;;;;;5076072;28;20290;-88
2022/08/20 11:59:50;;;;;;;8.20;1.67;;;25.20;49.70;;;;;;5078251;28;20282;-87
2022/08/20 12:02:16;;;;;;;5.18;1.88;;;24.90;51.60;;;;;;5076041;28;20266;-88
2022/08/20 12:04:41;;;;;;;7.22;1.60;;;24.80;52.40;;;;;;5076989;28;20214;-88
2022/08/20 12:07:12;;;;;;;6.10;1.90;;;25.00;52.30;;;;;;5077008;28;20191;-87
2022/08/20 12:09:38;;;;;;;8.00;2.20;;;25.20;52.60;;;;;;5077280;28;20160;-88
2022/08/20 12:12:04;;;;;;;4.93;1.60;;;25.40;51.20;;;;;;5076254;28;20179;-88
2022/08/20 12:14:30;;;;;;;7.85;2.35;;;25.20;52.90;;;;;;5076067;28;20174;-88
2022/08/20 12:16:55;;;;;;;11.00;1.65;;;25.20;52.40;;;;;;5077340;28;20199;-88
2022/08/20 12:19:21;;;;;;;8.48;1.70;;;25.20;53.30;;;;;;5075681;28;20228;-88
2022/08/20 12:21:46;;;;;;;6.18;1.75;;;25.20;53.60;;;;;;5077537;28;20198;-87
2022/08/20 12:24:12;;;;;;;8.27;2.20;;;25.40;53.10;;;;;;5075989;28;20672;-88
2022/08/20 12:26:37;;;;;;;9.30;2.15;;;25.50;53.30;;;;;;5075513;28;20201;-88
2022/08/20 12:29:03;;;;;;;7.55;2.00;;;25.40;52.60;;;;;;5075243;28;20182;-87
2022/08/20 12:31:28;;;;;;;7.05;2.17;;;25.70;52.60;;;;;;5076232;28;20271;-88
2022/08/20 12:33:54;;;;;;;8.18;2.15;;;25.50;53.00;;;;;;5076968;28;20179;-87
2022/08/20 12:36:20;;;;;;;6.20;1.48;;;25.00;53.10;;;;;;5075470;28;20201;-87
2022/08/20 12:38:45;;;;;;;7.50;2.00;;;24.60;53.60;;;;;;5076592;28;20175;-87
2022/08/20 12:41:11;;;;;;;8.48;1.80;;;24.90;54.00;;;;;;5076190;28;20188;-88
2022/08/20 12:43:36;;;;;;;4.68;1.80;;;25.40;53.90;;;;;;5075447;28;20229;-87
2022/08/20 12:46:02;;;;;;;6.63;1.75;;;25.50;49.70;;;;;;5076894;28;20195;-87